Time;durP1;ratioP1;P1;durP2;ratioP2;P2;SDS_P1;SDS_P2;PMS_P1;PMS_P2;Temp;Humidity;BMP_temperature;BMP_pressure;BME280_temperature;BME280_humidity;BME280_pressure;Samples;Min_cycle;Max_cycle;Signal;HPM_P1;HPM_P2
2021/10/19 00:02:54;;;;;;;20.77;12.43;;;;;;;8.52;100.00;95739.25;10431289;28;20025;-69
2021/10/19 00:07:55;;;;;;;27.57;14.77;;;;;;;8.50;100.00;95743.22;10475601;28;20256;-67
2021/10/19 00:12:55;;;;;;;24.40;14.05;;;;;;;8.37;100.00;95747.75;10439833;28;20283;-72
2021/10/19 00:17:55;;;;;;;26.35;15.02;;;;;;;8.39;100.00;95742.94;10437772;28;20021;-73
2021/10/19 00:22:56;;;;;;;25.70;13.20;;;;;;;8.32;100.00;95749.50;10438250;28;20086;-74
2021/10/19 00:27:57;;;;;;;25.05;13.23;;;;;;;8.30;100.00;95749.72;10442555;28;20279;-67
2021/10/19 00:32:57;;;;;;;27.75;14.13;;;;;;;8.17;100.00;95758.78;10446410;28;20020;-67
2021/10/19 00:37:58;;;;;;;32.70;15.40;;;;;;;8.14;100.00;95759.25;10457926;28;20018;-72
2021/10/19 00:42:58;;;;;;;32.65;14.05;;;;;;;8.07;100.00;95755.88;10456192;28;20016;-70
2021/10/19 00:47:59;;;;;;;23.30;13.60;;;;;;;8.10;100.00;95751.94;10486011;28;20016;-69
2021/10/19 00:53:00;;;;;;;27.23;15.80;;;;;;;8.11;100.00;95745.53;10463928;28;20321;-70
2021/10/19 00:58:02;;;;;;;30.25;14.40;;;;;;;8.07;100.00;95755.88;10445065;28;20424;-68
2021/10/19 01:03:04;;;;;;;32.38;16.13;;;;;;;8.09;100.00;95752.97;10446508;28;20029;-68
2021/10/19 01:08:05;;;;;;;28.83;14.18;;;;;;;8.00;100.00;95755.19;10437958;28;20025;-69
2021/10/19 01:13:06;;;;;;;27.70;14.38;;;;;;;7.96;100.00;95748.66;10467263;28;20375;-71
2021/10/19 01:18:06;;;;;;;28.48;14.23;;;;;;;7.90;100.00;95746.88;10475980;28;20036;-67
2021/10/19 01:23:08;;;;;;;29.13;13.63;;;;;;;7.80;100.00;95750.97;10468412;28;20544;-72
2021/10/19 01:28:10;;;;;;;25.40;13.27;;;;;;;7.81;100.00;95744.56;10411426;28;20024;-73
2021/10/19 01:33:11;;;;;;;24.90;13.10;;;;;;;7.76;100.00;95752.47;10427233;28;20175;-68
2021/10/19 01:38:20;;;;;;;27.98;13.40;;;;;;;7.69;100.00;95757.94;10426883;28;20382;-68
2021/10/19 01:43:23;;;;;;;22.88;12.23;;;;;;;7.68;100.00;95748.25;10460378;28;20411;-69
2021/10/19 01:48:25;;;;;;;22.63;12.38;;;;;;;7.56;100.00;95757.31;10467799;28;20020;-72
2021/10/19 01:53:26;;;;;;;19.08;11.30;;;;;;;7.55;100.00;95767.19;10462953;28;20120;-73
2021/10/19 01:58:26;;;;;;;26.15;10.88;;;;;;;7.58;100.00;95761.38;10467806;28;20518;-73
2021/10/19 02:03:26;;;;;;;19.33;10.27;;;;;;;7.60;100.00;95763.84;10467231;28;20020;-69
2021/10/19 02:08:27;;;;;;;23.65;10.85;;;;;;;7.58;100.00;95764.06;10467096;28;20524;-71
2021/10/19 02:13:27;;;;;;;19.73;10.47;;;;;;;7.54;100.00;95765.56;10467226;28;20379;-67
2021/10/19 02:18:28;;;;;;;23.23;10.27;;;;;;;7.56;100.00;95774.16;10467262;28;20356;-67
2021/10/19 02:23:28;;;;;;;18.87;9.10;;;;;;;7.45;100.00;95772.28;10467128;28;20517;-69
2021/10/19 02:28:28;;;;;;;16.52;9.23;;;;;;;7.35;100.00;95770.13;10483743;28;20274;-73
2021/10/19 02:33:32;;;;;;;19.30;9.57;;;;;;;7.26;100.00;95780.34;10484121;28;20033;-73
2021/10/19 02:38:32;;;;;;;20.33;11.18;;;;;;;7.23;100.00;95775.47;10482577;28;20457;-70
2021/10/19 02:43:32;;;;;;;20.03;9.60;;;;;;;7.20;100.00;95775.91;10466122;28;20028;-70
2021/10/19 02:48:33;;;;;;;22.65;9.20;;;;;;;7.12;100.00;95787.72;10482665;28;20293;-69
2021/10/19 02:53:33;;;;;;;22.17;9.93;;;;;;;7.12;100.00;95776.22;10465137;28;20024;-70
2021/10/19 02:58:34;;;;;;;14.90;8.53;;;;;;;7.03;100.00;95788.25;10464970;28;20309;-69
2021/10/19 03:03:34;;;;;;;19.13;10.18;;;;;;;7.01;100.00;95791.97;10483006;28;20362;-70
2021/10/19 03:08:35;;;;;;;19.23;9.18;;;;;;;6.94;100.00;95793.91;10423327;28;20028;-75
2021/10/19 03:13:36;;;;;;;25.33;8.82;;;;;;;6.89;100.00;95796.41;10447585;28;20033;-68
2021/10/19 03:18:36;;;;;;;19.50;8.13;;;;;;;6.96;100.00;95799.00;10462343;28;20132;-67
2021/10/19 03:23:37;;;;;;;16.40;8.68;;;;;;;6.89;100.00;95799.09;10447406;28;20468;-72
2021/10/19 03:28:38;;;;;;;16.33;8.88;;;;;;;6.90;100.00;95810.63;10423303;28;20035;-67
2021/10/19 03:33:39;;;;;;;27.08;9.55;;;;;;;6.81;100.00;95800.22;10422690;28;20078;-68
2021/10/19 03:38:40;;;;;;;20.95;9.82;;;;;;;6.73;100.00;95802.38;10438705;28;20041;-74
2021/10/19 03:43:40;;;;;;;23.40;10.15;;;;;;;6.67;100.00;95799.53;10439385;28;20033;-68
2021/10/19 03:48:41;;;;;;;20.15;9.65;;;;;;;6.63;100.00;95810.91;10450506;28;20132;-68
2021/10/19 03:53:41;;;;;;;21.97;10.87;;;;;;;6.49;100.00;95812.88;10463579;28;20024;-66
2021/10/19 03:58:41;;;;;;;19.00;10.98;;;;;;;6.54;100.00;95804.22;10481421;28;20351;-71
2021/10/19 04:03:47;;;;;;;20.93;10.30;;;;;;;6.45;100.00;95811.69;10439550;28;20120;-72
2021/10/19 04:08:48;;;;;;;21.30;9.95;;;;;;;6.36;100.00;95816.47;10438871;28;20268;-75
2021/10/19 04:13:48;;;;;;;23.58;11.18;;;;;;;6.18;100.00;95829.78;10405310;28;20021;-68
2021/10/19 04:18:49;;;;;;;18.73;10.90;;;;;;;6.15;100.00;95831.88;10422239;28;20069;-75
2021/10/19 04:23:49;;;;;;;29.50;12.25;;;;;;;5.97;100.00;95834.44;10430199;28;20267;-72
2021/10/19 04:28:49;;;;;;;27.85;12.02;;;;;;;5.97;100.00;95832.63;10437768;28;20020;-75
2021/10/19 04:33:50;;;;;;;26.23;13.47;;;;;;;5.81;100.00;95836.59;10468133;28;20031;-69
2021/10/19 04:38:50;;;;;;;26.60;11.55;;;;;;;5.75;100.00;95844.63;10465489;28;20290;-72
2021/10/19 04:43:51;;;;;;;29.30;12.13;;;;;;;5.73;100.00;95850.19;10467630;28;20036;-72
2021/10/19 04:48:51;;;;;;;26.02;13.65;;;;;;;5.68;100.00;95860.69;10485180;28;20278;-70
2021/10/19 04:53:52;;;;;;;22.60;12.10;;;;;;;5.70;100.00;95857.81;10464599;28;20024;-73
2021/10/19 04:58:52;;;;;;;151.43;72.60;;;;;;;5.60;100.00;95864.41;10440294;28;20368;-70
2021/10/19 05:03:53;;;;;;;40.07;15.57;;;;;;;5.67;100.00;95879.59;10464774;28;20271;-70
2021/10/19 05:08:54;;;;;;;37.58;11.18;;;;;;;5.63;100.00;95885.31;10465835;28;20266;-70
2021/10/19 05:13:54;;;;;;;28.70;12.27;;;;;;;5.63;100.00;95893.31;10486724;28;20024;-70
2021/10/19 05:18:54;;;;;;;26.43;12.13;;;;;;;5.66;100.00;95900.09;10468087;28;20021;-70
2021/10/19 05:23:55;;;;;;;34.90;13.90;;;;;;;5.81;100.00;95900.63;10469362;28;20799;-74
2021/10/19 05:28:55;;;;;;;32.00;13.60;;;;;;;6.05;100.00;95900.91;10486757;28;20359;-73
2021/10/19 05:33:56;;;;;;;29.47;14.73;;;;;;;6.25;100.00;95911.47;10466954;28;20024;-73
2021/10/19 05:38:56;;;;;;;30.97;12.13;;;;;;;6.39;100.00;95914.88;10468236;28;20281;-70
2021/10/19 05:43:56;;;;;;;27.37;12.40;;;;;;;6.60;100.00;95920.84;10467231;28;20335;-70
2021/10/19 05:48:57;;;;;;;21.52;12.55;;;;;;;6.77;100.00;95927.28;10485649;28;20274;-71
2021/10/19 05:53:58;;;;;;;32.45;11.35;;;;;;;6.94;100.00;95935.53;10467734;28;20028;-70
2021/10/19 05:58:58;;;;;;;20.30;10.68;;;;;;;7.11;100.00;95938.44;10484988;28;20056;-73
2021/10/19 06:03:59;;;;;;;28.95;12.05;;;;;;;7.25;100.00;95938.31;10467597;28;20532;-74
2021/10/19 06:08:59;;;;;;;23.58;10.80;;;;;;;7.49;100.00;95937.44;10466799;28;20024;-69
2021/10/19 06:14:00;;;;;;;26.60;11.00;;;;;;;7.73;100.00;95944.78;10450439;28;20094;-73
2021/10/19 06:19:00;;;;;;;19.80;9.37;;;;;;;8.11;100.00;95952.50;10466214;28;20021;-69
2021/10/19 06:24:00;;;;;;;12.90;7.60;;;;;;;8.85;100.00;95952.25;10466557;28;20365;-70
2021/10/19 06:29:09;;;;;;;23.77;8.73;;;;;;;9.49;100.00;95966.78;10466296;28;20267;-73
2021/10/19 06:34:09;;;;;;;;;;;;;;;9.89;100.00;95960.63;10481883;28;20370;-74
2021/10/19 06:39:10;;;;;;;12.52;7.70;;;;;;;10.12;100.00;95964.28;10466053;28;19916;-73
2021/10/19 06:44:10;;;;;;;19.23;8.80;;;;;;;10.11;100.00;95963.50;10464530;28;20417;-74
2021/10/19 06:49:12;;;;;;;21.35;10.60;;;;;;;10.19;100.00;95967.69;10465030;28;20016;-69
2021/10/19 06:54:12;;;;;;;22.08;9.98;;;;;;;10.48;100.00;95959.59;10465201;28;20348;-74
2021/10/19 06:59:12;;;;;;;22.37;10.13;;;;;;;10.60;100.00;95974.63;10464842;28;20041;-70
2021/10/19 07:04:13;;;;;;;25.20;11.13;;;;;;;10.99;100.00;95968.53;10447461;28;20294;-69
2021/10/19 07:09:13;;;;;;;24.95;11.27;;;;;;;11.14;100.00;95970.66;10447183;28;20255;-70
2021/10/19 07:14:14;;;;;;;24.13;11.37;;;;;;;12.25;100.00;95965.34;10464005;28;20025;-73
2021/10/19 07:19:14;;;;;;;22.13;10.77;;;;;;;12.08;100.00;95962.75;10463939;28;20028;-71
2021/10/19 07:24:15;;;;;;;25.63;11.57;;;;;;;11.94;100.00;95959.63;10481447;28;20021;-74
2021/10/19 07:29:15;;;;;;;27.80;12.50;;;;;;;11.80;100.00;95972.63;10463708;28;20325;-67
2021/10/19 07:34:16;;;;;;;28.17;13.00;;;;;;;12.52;100.00;95967.28;10463759;28;20032;-68
2021/10/19 07:39:16;;;;;;;42.47;14.35;;;;;;;13.54;100.00;95956.47;10463828;28;20032;-75
2021/10/19 07:44:18;;;;;;;28.33;14.30;;;;;;;13.68;100.00;95968.41;10463747;28;20612;-70
2021/10/19 07:49:19;;;;;;;29.52;15.35;;;;;;;12.77;100.00;95959.41;10481422;28;20158;-69
2021/10/19 07:54:19;;;;;;;42.15;14.65;;;;;;;12.63;100.00;95950.13;10463338;28;20028;-75
2021/10/19 07:59:20;;;;;;;35.87;15.07;;;;;;;12.52;100.00;95949.19;10462551;28;20175;-71
2021/10/19 08:04:20;;;;;;;33.58;16.73;;;;;;;12.78;100.00;95955.63;10446441;28;20776;-70
2021/10/19 08:09:20;;;;;;;40.85;15.60;;;;;;;12.96;100.00;95953.59;10463089;28;20021;-70
2021/10/19 08:14:21;;;;;;;35.90;16.33;;;;;;;13.26;100.00;95949.53;10462696;28;20028;-72
2021/10/19 08:19:21;;;;;;;33.33;14.93;;;;;;;14.16;100.00;95957.56;10462183;28;20336;-72
2021/10/19 08:24:22;;;;;;;33.03;14.82;;;;;;;14.46;100.00;95949.78;10480345;28;20274;-74
2021/10/19 08:29:22;;;;;;;26.33;13.00;;;;;;;14.73;97.71;95946.84;10462753;28;20039;-73
2021/10/19 08:34:22;;;;;;;26.63;13.03;;;;;;;14.97;98.76;95949.03;10462086;28;20410;-70
2021/10/19 08:39:23;;;;;;;27.77;13.17;;;;;;;15.28;93.74;95940.88;10463111;28;20031;-73
2021/10/19 08:44:23;;;;;;;20.77;12.33;;;;;;;15.21;90.95;95942.00;10461955;28;20028;-69
2021/10/19 08:49:25;;;;;;;17.00;8.95;;;;;;;15.61;85.82;95944.88;10461568;28;20271;-74
2021/10/19 08:54:25;;;;;;;19.50;9.65;;;;;;;15.81;80.19;95943.22;10462615;28;20058;-69
2021/10/19 08:59:26;;;;;;;22.02;10.40;;;;;;;15.88;78.41;95941.06;10444145;28;20060;-70
2021/10/19 09:04:30;;;;;;;15.18;7.47;;;;;;;16.43;67.99;95940.25;10461566;28;20036;-72
2021/10/19 09:09:32;;;;;;;9.75;5.65;;;;;;;16.57;54.73;95931.16;10485407;28;20023;-74
2021/10/19 09:14:37;;;;;;;13.15;6.82;;;;;;;16.36;57.83;95919.63;10487107;28;20025;-70
2021/10/19 09:19:39;;;;;;;15.30;6.38;;;;;;;16.82;54.83;95915.78;10467972;28;20591;-74
2021/10/19 09:24:41;;;;;;;23.02;8.43;;;;;;;17.60;56.49;95915.91;10469212;28;20024;-71
2021/10/19 09:29:47;;;;;;;13.93;7.10;;;;;;;17.89;50.12;95913.13;10486056;28;20502;-74
2021/10/19 09:34:49;;;;;;;12.55;6.88;;;;;;;18.85;45.25;95902.28;10484568;28;20082;-73
2021/10/19 09:39:51;;;;;;;13.35;6.15;;;;;;;20.57;40.48;95888.63;10468370;28;20024;-73
2021/10/19 09:44:58;;;;;;;15.70;6.15;;;;;;;24.01;35.76;95883.13;10467526;28;20028;-70
2021/10/19 09:50:00;;;;;;;11.05;4.90;;;;;;;23.80;35.94;95879.50;10466833;28;20025;-73
2021/10/19 09:55:05;;;;;;;11.32;5.80;;;;;;;22.40;36.50;95877.00;10466901;28;20028;-69
2021/10/19 10:00:06;;;;;;;14.75;6.68;;;;;;;20.98;39.71;95879.47;10450746;28;20625;-69
2021/10/19 10:05:07;;;;;;;10.73;6.13;;;;;;;19.88;41.23;95882.19;10483751;28;20107;-75
2021/10/19 10:10:09;;;;;;;13.77;6.82;;;;;;;19.28;45.72;95872.16;10465886;28;20081;-74
2021/10/19 10:15:21;;;;;;;9.43;5.63;;;;;;;17.34;47.68;95872.69;10466700;28;20058;-73
2021/10/19 10:20:29;;;;;;;12.63;6.43;;;;;;;17.08;53.81;95866.72;10484062;28;20036;-74
2021/10/19 10:25:36;;;;;;;10.95;5.78;;;;;;;17.00;50.93;95859.22;10482803;28;20028;-69
2021/10/19 10:30:38;;;;;;;13.77;7.68;;;;;;;17.38;53.75;95862.06;10450898;28;20025;-73
2021/10/19 10:35:47;;;;;;;10.88;6.38;;;;;;;18.31;50.05;95847.28;10451216;28;20035;-69
2021/10/19 10:40:47;;;;;;;10.52;5.90;;;;;;;19.56;45.92;95840.25;10466615;28;20024;-70
2021/10/19 10:46:01;;;;;;;9.47;4.63;;;;;;;23.29;37.15;95822.56;10482739;28;20016;-70
2021/10/19 10:51:04;;;;;;;11.60;5.60;;;;;;;25.06;33.85;95812.78;10449184;28;20259;-68
2021/10/19 10:56:06;;;;;;;6.03;4.20;;;;;;;26.48;29.62;95805.91;10481031;28;20032;-70
2021/10/19 11:01:20;;;;;;;8.52;4.32;;;;;;;27.61;27.59;95802.22;10520638;28;20137;-68
2021/10/19 11:06:23;;;;;;;7.63;4.15;;;;;;;28.57;28.00;95802.81;10522647;28;20254;-69
2021/10/19 11:11:24;;;;;;;8.93;4.45;;;;;;;30.00;26.24;95787.19;10522174;28;20542;-69
2021/10/19 11:16:31;;;;;;;7.05;4.72;;;;;;;30.00;25.95;95778.06;10521960;28;20055;-70
2021/10/19 11:21:33;;;;;;;8.30;4.13;;;;;;;29.06;26.04;95782.03;10522866;28;20020;-72
2021/10/19 11:26:34;;;;;;;15.25;5.70;;;;;;;27.43;27.58;95774.16;10521260;28;20024;-72
2021/10/19 11:31:37;;;;;;;7.57;5.07;;;;;;;24.46;31.09;95768.22;10521350;28;20425;-70
2021/10/19 11:36:38;;;;;;;9.50;5.45;;;;;;;22.07;34.07;95773.38;10520853;28;20028;-76
2021/10/19 11:41:43;;;;;;;8.20;5.03;;;;;;;20.43;36.86;95785.72;10521388;28;20020;-74
2021/10/19 11:46:44;;;;;;;7.93;5.07;;;;;;;18.97;39.92;95779.28;10521403;28;20436;-70
2021/10/19 11:51:48;;;;;;;8.82;4.82;;;;;;;18.15;43.60;95768.63;10520472;28;20074;-70
2021/10/19 11:57:04;;;;;;;6.97;4.68;;;;;;;17.46;45.08;95773.66;10520976;28;20172;-69
2021/10/19 12:02:07;;;;;;;13.63;5.07;;;;;;;17.27;47.47;95760.03;10515990;28;20072;-72
2021/10/19 12:07:07;;;;;;;7.97;5.00;;;;;;;16.98;50.41;95767.16;10479723;28;20029;-70
2021/10/19 12:12:08;;;;;;;11.35;5.38;;;;;;;16.88;52.83;95768.09;10481306;28;20521;-72
2021/10/19 12:17:10;;;;;;;10.07;4.40;;;;;;;15.94;64.99;95763.69;10478949;28;20551;-68
2021/10/19 12:22:11;;;;;;;12.77;6.15;;;;;;;15.16;66.04;95754.34;10488485;28;20131;-68
2021/10/19 12:27:17;;;;;;;9.85;5.60;;;;;;;15.50;62.45;95750.91;10517435;28;20030;-68
2021/10/19 12:32:18;;;;;;;7.90;4.82;;;;;;;15.77;67.14;95750.50;10462191;28;20039;-69
2021/10/19 12:37:18;;;;;;;9.63;4.22;;;;;;;15.31;60.70;95743.44;10480554;28;20071;-74
2021/10/19 12:42:18;;;;;;;10.63;4.75;;;;;;;15.50;60.47;95743.63;10520491;28;20165;-74
2021/10/19 12:47:19;;;;;;;8.77;4.87;;;;;;;15.59;70.24;95740.31;10504018;28;20040;-70
2021/10/19 12:52:20;;;;;;;6.73;4.47;;;;;;;15.62;62.68;95742.47;10522092;28;20266;-73
2021/10/19 12:57:21;;;;;;;8.57;4.10;;;;;;;15.51;62.75;95736.28;10528138;28;20093;-72
2021/10/19 13:02:25;;;;;;;8.02;4.38;;;;;;;15.36;59.71;95742.59;10521134;28;20520;-68
2021/10/19 13:07:26;;;;;;;8.68;4.88;;;;;;;15.28;63.61;95740.47;10522576;28;20027;-69
2021/10/19 13:12:28;;;;;;;7.57;4.07;;;;;;;15.21;71.39;95738.09;10524281;28;20031;-73
2021/10/19 13:17:29;;;;;;;6.60;3.72;;;;;;;15.36;65.29;95734.47;10526601;28;20085;-68
2021/10/19 13:22:29;;;;;;;7.72;3.92;;;;;;;15.45;60.87;95727.38;10524745;28;20585;-72
2021/10/19 13:27:30;;;;;;;7.60;3.67;;;;;;;15.48;63.63;95737.66;10522487;28;20070;-73
2021/10/19 13:32:30;;;;;;;9.38;3.90;;;;;;;15.51;61.21;95731.69;10523152;28;20032;-66
2021/10/19 13:37:31;;;;;;;6.95;4.13;;;;;;;15.37;57.73;95739.59;10524353;28;20032;-67
2021/10/19 13:42:31;;;;;;;5.30;3.40;;;;;;;15.16;73.00;95730.78;10493998;28;20031;-70
2021/10/19 13:47:32;;;;;;;5.03;3.35;;;;;;;14.97;70.63;95746.00;10510606;28;20584;-73
2021/10/19 13:52:32;;;;;;;4.40;3.10;;;;;;;14.71;64.92;95746.09;10524574;28;20020;-71
2021/10/19 13:57:37;;;;;;;7.40;4.03;;;;;;;14.69;70.45;95745.53;10504542;28;20118;-73
2021/10/19 14:02:38;;;;;;;6.18;3.38;;;;;;;14.56;69.78;95746.09;10484383;28;20036;-71
2021/10/19 14:07:38;;;;;;;6.18;3.33;;;;;;;14.39;75.01;95743.69;10502714;28;20028;-75
2021/10/19 14:12:39;;;;;;;9.27;4.10;;;;;;;14.30;74.34;95752.34;10525449;28;20042;-69
2021/10/19 14:17:39;;;;;;;6.82;3.38;;;;;;;14.28;80.09;95751.00;10524978;28;20271;-70
2021/10/19 14:22:40;;;;;;;7.80;3.70;;;;;;;14.15;70.75;95749.66;10499326;28;20056;-73
2021/10/19 14:27:40;;;;;;;6.07;3.70;;;;;;;13.96;76.02;95758.28;10498933;28;20313;-73
2021/10/19 14:32:41;;;;;;;8.93;4.90;;;;;;;13.97;82.25;95751.00;10483056;28;20158;-69
2021/10/19 14:37:41;;;;;;;9.82;4.28;;;;;;;13.89;81.00;95754.22;10514362;28;20066;-70
2021/10/19 14:42:43;;;;;;;9.30;3.95;;;;;;;13.71;83.34;95753.66;10525647;28;20035;-71
2021/10/19 14:47:43;;;;;;;7.30;4.40;;;;;;;13.66;78.14;95746.38;10506576;28;20034;-74
2021/10/19 14:52:45;;;;;;;8.27;4.37;;;;;;;13.50;82.67;95750.09;10516333;28;20034;-69
2021/10/19 14:57:46;;;;;;;6.38;4.22;;;;;;;13.35;82.70;95748.16;10493585;28;20324;-75
2021/10/19 15:02:47;;;;;;;9.35;4.93;;;;;;;13.06;89.72;95756.69;10439541;28;20041;-71
2021/10/19 15:07:48;;;;;;;13.05;5.07;;;;;;;12.75;92.11;95756.50;10439056;28;20025;-68
2021/10/19 15:12:48;;;;;;;13.02;5.78;;;;;;;12.31;100.00;95768.38;10450615;28;20187;-69
2021/10/19 15:17:49;;;;;;;17.63;6.65;;;;;;;12.05;100.00;95764.66;10481714;28;20033;-69
2021/10/19 15:22:49;;;;;;;14.35;7.75;;;;;;;11.67;100.00;95776.44;10463409;28;20028;-69
2021/10/19 15:27:52;;;;;;;19.30;8.23;;;;;;;11.38;100.00;95779.34;10481683;28;20028;-69
2021/10/19 15:32:52;;;;;;;13.38;7.65;;;;;;;11.25;100.00;95783.25;10463582;28;20275;-68
2021/10/19 15:37:53;;;;;;;17.75;9.68;;;;;;;11.03;100.00;95792.13;10479308;28;20032;-69
2021/10/19 15:42:54;;;;;;;18.23;7.70;;;;;;;11.10;100.00;95791.94;10478086;28;20043;-68
2021/10/19 15:47:54;;;;;;;16.15;8.88;;;;;;;11.01;100.00;95794.25;10451244;28;20040;-68
2021/10/19 15:52:55;;;;;;;29.27;10.07;;;;;;;10.86;100.00;95791.38;10445579;28;20035;-69
2021/10/19 15:57:55;;;;;;;26.87;9.70;;;;;;;10.81;100.00;95807.44;10453092;28;20081;-72
2021/10/19 16:02:55;;;;;;;20.70;10.50;;;;;;;10.51;100.00;95805.94;10470807;28;20275;-73
2021/10/19 16:07:57;;;;;;;23.38;9.52;;;;;;;10.52;100.00;95802.16;10479139;28;20013;-67
2021/10/19 16:12:59;;;;;;;19.65;10.73;;;;;;;10.46;100.00;95797.78;10433573;28;20028;-74
2021/10/19 16:17:59;;;;;;;22.58;10.38;;;;;;;10.41;100.00;95806.59;10462123;28;20111;-69
2021/10/19 16:23:00;;;;;;;26.73;9.98;;;;;;;10.29;100.00;95809.31;10463742;28;20028;-73
2021/10/19 16:28:01;;;;;;;25.80;10.33;;;;;;;10.23;100.00;95805.75;10482741;28;20028;-68
2021/10/19 16:33:01;;;;;;;20.65;9.57;;;;;;;10.21;100.00;95807.03;10463084;28;20294;-72
2021/10/19 16:38:02;;;;;;;22.17;10.77;;;;;;;10.11;100.00;95813.06;10462523;28;20621;-72
2021/10/19 16:43:02;;;;;;;23.60;10.35;;;;;;;10.08;100.00;95825.09;10461618;28;20286;-68
2021/10/19 16:48:03;;;;;;;17.52;9.82;;;;;;;10.02;100.00;95827.94;10452654;28;20521;-69
2021/10/19 16:53:03;;;;;;;30.85;12.25;;;;;;;9.87;100.00;95834.69;10433882;28;20028;-73
2021/10/19 16:58:03;;;;;;;27.13;13.07;;;;;;;9.86;100.00;95841.09;10460820;28;20429;-75
2021/10/19 17:03:05;;;;;;;26.57;12.73;;;;;;;9.77;100.00;95849.78;10450834;28;20533;-76
2021/10/19 17:08:06;;;;;;;29.40;14.15;;;;;;;9.63;100.00;95858.13;10460139;28;20664;-68
2021/10/19 17:13:07;;;;;;;35.75;15.50;;;;;;;9.51;100.00;95854.69;10462632;28;20036;-72
2021/10/19 17:18:07;;;;;;;34.08;15.90;;;;;;;9.43;100.00;95871.94;10485701;28;20028;-72
2021/10/19 17:23:09;;;;;;;34.58;15.88;;;;;;;9.29;100.00;95879.44;10466881;28;20028;-73
2021/10/19 17:28:10;;;;;;;30.30;16.00;;;;;;;9.13;100.00;95888.25;10436830;28;20479;-68
2021/10/19 17:33:10;;;;;;;37.10;15.60;;;;;;;8.90;100.00;95892.56;10450089;28;20024;-73
2021/10/19 17:38:11;;;;;;;32.53;15.20;;;;;;;8.91;100.00;95907.59;10454233;28;20104;-66
2021/10/19 17:43:11;;;;;;;36.67;16.73;;;;;;;8.77;100.00;95915.06;10449850;28;20267;-72
2021/10/19 17:48:12;;;;;;;39.53;18.10;;;;;;;8.63;100.00;95922.50;10425301;28;20025;-69
2021/10/19 17:53:13;;;;;;;45.25;17.35;;;;;;;8.48;100.00;95925.59;10474234;28;20042;-73
2021/10/19 17:58:14;;;;;;;46.10;16.98;;;;;;;8.54;100.00;95930.06;10465699;28;20059;-72
2021/10/19 18:03:15;;;;;;;40.35;17.27;;;;;;;8.59;100.00;95932.03;10453515;28;20490;-71
2021/10/19 18:08:15;;;;;;;33.25;16.88;;;;;;;8.51;100.00;95924.34;10425350;28;20021;-69
2021/10/19 18:13:16;;;;;;;46.88;17.85;;;;;;;8.48;100.00;95930.16;10456969;28;20028;-68
2021/10/19 18:18:16;;;;;;;40.35;17.63;;;;;;;8.47;100.00;95931.19;10444468;28;20043;-69
2021/10/19 18:23:17;;;;;;;36.50;17.75;;;;;;;8.36;100.00;95932.81;10429439;28;20115;-73
2021/10/19 18:28:19;;;;;;;37.80;17.33;;;;;;;8.15;100.00;95926.06;10434158;28;20463;-72
2021/10/19 18:33:19;;;;;;;42.17;17.45;;;;;;;8.26;100.00;95919.13;10464841;28;20481;-73
2021/10/19 18:38:20;;;;;;;53.78;19.45;;;;;;;8.31;100.00;95928.09;10453253;28;20029;-72
2021/10/19 18:43:20;;;;;;;60.70;20.42;;;;;;;8.22;100.00;95916.13;10423875;28;20090;-68
2021/10/19 18:48:21;;;;;;;39.30;18.33;;;;;;;8.23;100.00;95909.69;10427718;28;20023;-68
2021/10/19 18:53:22;;;;;;;41.38;18.05;;;;;;;8.15;100.00;95910.00;10473027;28;20030;-73
2021/10/19 18:58:25;;;;;;;41.15;18.77;;;;;;;7.98;100.00;95894.63;10448985;28;20095;-71
2021/10/19 19:03:25;;;;;;;39.72;17.63;;;;;;;7.96;100.00;95902.03;10480882;28;20635;-74
2021/10/19 19:08:26;;;;;;;45.80;17.98;;;;;;;7.92;100.00;95908.91;10463267;28;20012;-66
2021/10/19 19:13:26;;;;;;;31.38;17.40;;;;;;;7.93;100.00;95902.50;10447463;28;20020;-70
2021/10/19 19:18:28;;;;;;;41.97;17.27;;;;;;;7.86;100.00;95907.94;10457207;28;20039;-68
2021/10/19 19:23:28;;;;;;;54.65;18.50;;;;;;;7.76;100.00;95894.31;10416854;28;20029;-69
2021/10/19 19:28:29;;;;;;;40.72;18.80;;;;;;;7.62;100.00;95901.69;10443914;28;20020;-70
2021/10/19 19:33:30;;;;;;;35.90;18.90;;;;;;;7.76;100.00;95910.34;10459412;28;20021;-69
2021/10/19 19:38:30;;;;;;;34.58;18.17;;;;;;;7.76;100.00;95904.16;10442174;28;20345;-70
2021/10/19 19:43:35;;;;;;;42.60;17.80;;;;;;;7.66;100.00;95918.09;10441002;28;20469;-70
2021/10/19 19:48:35;;;;;;;43.58;18.98;;;;;;;7.52;100.00;95928.97;10458238;28;20516;-73
2021/10/19 19:53:37;;;;;;;43.53;19.40;;;;;;;7.53;100.00;95935.13;10489824;28;20027;-70
2021/10/19 19:58:38;;;;;;;42.15;17.98;;;;;;;7.43;100.00;95932.97;10520091;28;20076;-69
2021/10/19 20:03:40;;;;;;;40.03;19.00;;;;;;;7.19;100.00;95950.72;10443180;28;20106;-68
2021/10/19 20:08:40;;;;;;;44.03;20.98;;;;;;;7.28;100.00;95952.06;10461070;28;20077;-72
2021/10/19 20:13:41;;;;;;;41.40;18.93;;;;;;;7.11;100.00;95953.69;10452588;28;20033;-73
2021/10/19 20:18:42;;;;;;;42.60;18.60;;;;;;;7.03;100.00;95953.97;10436919;28;20283;-69
2021/10/19 20:23:42;;;;;;;34.33;17.20;;;;;;;7.11;100.00;95948.34;10420175;28;20025;-70
2021/10/19 20:28:43;;;;;;;42.40;16.80;;;;;;;7.06;100.00;95958.88;10442541;28;20061;-70
2021/10/19 20:33:43;;;;;;;38.05;15.57;;;;;;;7.07;100.00;95958.66;10461554;28;20031;-65
2021/10/19 20:38:43;;;;;;;34.33;15.57;;;;;;;6.94;100.00;95942.75;10479788;28;20016;-68
2021/10/19 20:43:44;;;;;;;32.07;15.20;;;;;;;6.83;100.00;95941.63;10479907;28;20163;-69
2021/10/19 20:48:44;;;;;;;29.80;14.82;;;;;;;6.69;100.00;95937.44;10454219;28;20280;-70
2021/10/19 20:53:45;;;;;;;33.30;14.23;;;;;;;6.65;100.00;95945.06;10426354;28;20102;-74
2021/10/19 20:58:45;;;;;;;32.92;15.68;;;;;;;6.62;100.00;95951.63;10437326;28;20314;-72
2021/10/19 21:03:46;;;;;;;31.23;15.15;;;;;;;6.61;100.00;95958.00;10424187;28;20063;-69
2021/10/19 21:08:46;;;;;;;32.90;15.57;;;;;;;6.39;100.00;95956.75;10445065;28;20392;-72
2021/10/19 21:13:47;;;;;;;33.60;15.95;;;;;;;6.25;100.00;95967.53;10467462;28;20020;-70
2021/10/19 21:18:47;;;;;;;34.78;16.13;;;;;;;6.37;100.00;95964.16;10467800;28;20025;-67
2021/10/19 21:23:48;;;;;;;33.47;15.82;;;;;;;6.31;100.00;95972.00;10466489;28;20524;-70
2021/10/19 21:28:49;;;;;;;35.20;15.05;;;;;;;6.03;100.00;95977.72;10467017;28;20027;-68
2021/10/19 21:33:49;;;;;;;35.70;16.42;;;;;;;5.99;100.00;95971.97;10467154;28;20024;-68
2021/10/19 21:38:50;;;;;;;37.83;17.87;;;;;;;6.11;100.00;95976.63;10466623;28;20036;-69
2021/10/19 21:43:53;;;;;;;31.10;14.68;;;;;;;5.92;100.00;95978.38;10465458;28;20378;-69
2021/10/19 21:48:53;;;;;;;36.92;15.90;;;;;;;5.74;100.00;95979.88;10426274;28;20052;-74
2021/10/19 21:53:53;;;;;;;38.57;18.70;;;;;;;5.57;100.00;95976.06;10465182;28;20466;-69
2021/10/19 21:58:54;;;;;;;35.35;16.73;;;;;;;5.55;100.00;95964.75;10462540;28;20301;-70
2021/10/19 22:03:54;;;;;;;36.67;16.20;;;;;;;5.46;100.00;95974.84;10479437;28;20029;-68
2021/10/19 22:08:55;;;;;;;37.47;17.87;;;;;;;5.41;100.00;95977.31;10440705;28;20069;-73
2021/10/19 22:13:55;;;;;;;36.55;17.17;;;;;;;5.50;100.00;95978.72;10442119;28;20318;-74
2021/10/19 22:18:56;;;;;;;39.20;16.45;;;;;;;5.43;100.00;95969.94;10457885;28;20579;-72
2021/10/19 22:29:00;;;;;;;35.90;16.30;;;;;;;5.49;100.00;95955.75;10484792;28;20025;-67
2021/10/19 22:34:00;;;;;;;32.00;15.40;;;;;;;5.35;100.00;95954.97;10484176;28;20391;-70
2021/10/19 22:39:05;;;;;;;35.30;18.00;;;;;;;5.22;100.00;95953.19;10465715;28;20032;-72
2021/10/19 22:44:06;;;;;;;32.60;15.68;;;;;;;5.18;100.00;95946.63;10441356;28;20075;-69
2021/10/19 22:49:07;;;;;;;30.75;14.00;;;;;;;5.23;100.00;95944.16;10424273;28;20028;-67
2021/10/19 22:54:08;;;;;;;25.15;12.57;;;;;;;5.30;100.00;95944.13;10424057;28;20048;-68
2021/10/19 22:59:08;;;;;;;24.98;13.30;;;;;;;5.38;100.00;95940.41;10423562;28;20138;-68